Time;durP1;ratioP1;P1;durP2;ratioP2;P2;SDS_P1;SDS_P2;PMS_P1;PMS_P2;Temp;Humidity;BMP_temperature;BMP_pressure;BME280_temperature;BME280_humidity;BME280_pressure;Samples;Min_cycle;Max_cycle;Signal;HPM_P1;HPM_P2
2021/07/22 00:00:56;;;;;;;15.75;8.02;;;;;;;;;;5052239;28;20044;-68
2021/07/22 00:03:22;;;;;;;11.90;8.13;;;;;;;;;;5050521;28;20490;-81
2021/07/22 00:05:48;;;;;;;11.00;8.50;;;;;;;;;;5066058;28;20577;-83
2021/07/22 00:08:18;;;;;;;12.73;7.93;;;;;;;;;;5060696;28;20395;-84
2021/07/22 00:10:44;;;;;;;10.35;8.40;;;;;;;;;;5044775;28;20477;-81
2021/07/22 00:13:11;;;;;;;12.43;8.32;;;;;;;;;;5055056;28;20477;-83
2021/07/22 00:15:37;;;;;;;10.50;7.97;;;;;;;;;;5047144;28;20369;-69
2021/07/22 00:18:04;;;;;;;11.30;7.95;;;;;;;;;;5056235;28;20029;-68
2021/07/22 00:20:32;;;;;;;12.70;8.13;;;;;;;;;;5045238;28;20028;-81
2021/07/22 00:22:58;;;;;;;11.13;8.48;;;;;;;;;;5042861;28;20028;-80
2021/07/22 00:25:24;;;;;;;12.75;8.40;;;;;;;;;;5043543;28;20037;-76
2021/07/22 00:27:50;;;;;;;11.45;7.80;;;;;;;;;;5055139;28;20064;-82
2021/07/22 00:30:16;;;;;;;11.10;8.02;;;;;;;;;;5056617;28;20055;-83
2021/07/22 00:32:42;;;;;;;11.32;8.73;;;;;;;;;;5047481;28;20033;-83
2021/07/22 00:35:09;;;;;;;11.48;8.63;;;;;;;;;;5051601;28;20056;-82
2021/07/22 00:37:35;;;;;;;10.68;8.20;;;;;;;;;;5052640;28;20037;-69
2021/07/22 00:40:01;;;;;;;10.75;8.80;;;;;;;;;;5057737;28;20017;-69
2021/07/22 00:42:27;;;;;;;11.82;7.97;;;;;;;;;;5050972;28;20079;-72
2021/07/22 00:44:53;;;;;;;12.55;8.98;;;;;;;;;;5052904;28;20021;-75
2021/07/22 00:47:19;;;;;;;11.55;8.68;;;;;;;;;;5045527;28;20482;-83
2021/07/22 00:49:49;;;;;;;9.63;8.32;;;;;;;;;;5044901;28;20064;-82
2021/07/22 00:52:16;;;;;;;10.90;8.00;;;;;;;;;;5049229;28;20037;-79
2021/07/22 00:54:42;;;;;;;16.55;8.50;;;;;;;;;;5048942;28;20036;-84
2021/07/22 00:57:08;;;;;;;12.00;8.63;;;;;;;;;;5055106;28;20119;-68
2021/07/22 00:59:34;;;;;;;14.23;8.30;;;;;;;;;;5046756;28;20511;-68
2021/07/22 01:02:02;;;;;;;10.80;8.13;;;;;;;;;;5047628;28;20064;-83
2021/07/22 01:04:28;;;;;;;10.95;8.18;;;;;;;;;;5057967;28;20453;-81
2021/07/22 01:06:54;;;;;;;11.98;8.10;;;;;;;;;;5049183;28;20028;-71
2021/07/22 01:09:20;;;;;;;16.63;8.60;;;;;;;;;;5051201;28;20029;-82
2021/07/22 01:11:47;;;;;;;13.60;8.63;;;;;;;;;;5046805;28;20099;-83
2021/07/22 01:14:13;;;;;;;11.13;8.15;;;;;;;;;;5057892;28;20029;-82
2021/07/22 01:16:39;;;;;;;12.35;8.65;;;;;;;;;;5050887;28;20083;-80
2021/07/22 01:19:05;;;;;;;12.25;8.13;;;;;;;;;;5028141;28;20372;-80
2021/07/22 01:21:31;;;;;;;11.30;8.27;;;;;;;;;;5050704;28;20044;-83
2021/07/22 01:23:57;;;;;;;11.05;8.07;;;;;;;;;;5038838;28;20022;-81
2021/07/22 01:26:23;;;;;;;13.35;8.77;;;;;;;;;;5053775;28;20025;-72
2021/07/22 01:28:49;;;;;;;12.90;8.30;;;;;;;;;;5063018;28;20094;-83
2021/07/22 01:31:15;;;;;;;13.65;8.80;;;;;;;;;;5050734;28;20029;-83
2021/07/22 01:33:42;;;;;;;17.85;8.85;;;;;;;;;;5047632;28;20478;-74
2021/07/22 01:36:08;;;;;;;13.07;8.57;;;;;;;;;;5052700;28;20036;-84
2021/07/22 01:38:34;;;;;;;13.50;9.13;;;;;;;;;;5053148;28;20033;-71
2021/07/22 01:41:03;;;;;;;10.45;8.70;;;;;;;;;;5052364;28;20025;-79
2021/07/22 01:43:29;;;;;;;14.13;9.10;;;;;;;;;;5047381;28;20098;-76
2021/07/22 01:45:55;;;;;;;11.98;8.50;;;;;;;;;;5054301;28;20033;-80
2021/07/22 01:48:21;;;;;;;13.13;8.18;;;;;;;;;;5051564;28;20028;-71
2021/07/22 01:50:47;;;;;;;12.75;8.18;;;;;;;;;;5058737;28;20017;-80
2021/07/22 01:53:14;;;;;;;10.98;8.50;;;;;;;;;;5052050;28;20029;-80
2021/07/22 01:55:40;;;;;;;13.07;8.30;;;;;;;;;;5053534;28;20432;-76
2021/07/22 01:58:06;;;;;;;11.13;8.23;;;;;;;;;;5046990;28;21014;-69
2021/07/22 02:00:32;;;;;;;12.88;8.52;;;;;;;;;;5046459;28;20029;-81
2021/07/22 02:02:58;;;;;;;10.85;8.15;;;;;;;;;;5051971;28;20138;-78
2021/07/22 02:05:24;;;;;;;11.98;7.70;;;;;;;;;;5051850;28;20095;-76
2021/07/22 02:07:50;;;;;;;10.05;8.05;;;;;;;;;;5061685;28;20025;-68
2021/07/22 02:10:16;;;;;;;10.75;8.70;;;;;;;;;;5057952;28;20134;-71
2021/07/22 02:12:42;;;;;;;11.70;8.25;;;;;;;;;;5054163;28;20381;-76
2021/07/22 02:15:08;;;;;;;12.05;7.85;;;;;;;;;;5063015;28;20075;-78
2021/07/22 02:17:34;;;;;;;11.25;8.38;;;;;;;;;;5052034;28;20039;-78
2021/07/22 02:20:02;;;;;;;11.85;8.45;;;;;;;;;;5055456;28;20048;-71
2021/07/22 02:22:30;;;;;;;12.32;8.65;;;;;;;;;;5050147;28;20044;-75
2021/07/22 02:25:00;;;;;;;12.88;8.48;;;;;;;;;;5049313;28;20099;-81
2021/07/22 02:27:26;;;;;;;11.45;8.23;;;;;;;;;;5059796;28;20025;-79
2021/07/22 02:29:52;;;;;;;11.10;8.25;;;;;;;;;;5046459;28;20037;-80
2021/07/22 02:32:18;;;;;;;12.68;8.00;;;;;;;;;;5040465;28;20021;-81
2021/07/22 02:34:44;;;;;;;12.23;7.53;;;;;;;;;;5042550;28;20036;-76
2021/07/22 02:37:10;;;;;;;11.65;8.13;;;;;;;;;;5065681;28;20068;-68
2021/07/22 02:39:38;;;;;;;13.10;7.72;;;;;;;;;;5049131;28;20028;-77
2021/07/22 02:42:04;;;;;;;10.10;7.32;;;;;;;;;;5051254;28;20115;-78
2021/07/22 02:44:31;;;;;;;11.43;7.70;;;;;;;;;;5054426;28;20021;-68
2021/07/22 02:46:57;;;;;;;9.55;7.38;;;;;;;;;;5054550;28;20025;-77
2021/07/22 02:49:23;;;;;;;9.27;7.07;;;;;;;;;;5045264;28;20029;-73
2021/07/22 02:51:49;;;;;;;15.35;7.53;;;;;;;;;;5050414;28;20013;-69
2021/07/22 02:54:15;;;;;;;13.85;7.57;;;;;;;;;;5054917;28;20029;-77
2021/07/22 02:56:41;;;;;;;11.05;7.13;;;;;;;;;;5054405;28;20041;-77
2021/07/22 02:59:07;;;;;;;10.70;7.65;;;;;;;;;;5046891;28;20079;-68
2021/07/22 03:01:33;;;;;;;10.13;6.97;;;;;;;;;;5053620;28;20453;-68
2021/07/22 03:03:59;;;;;;;10.77;6.50;;;;;;;;;;5051000;28;20144;-69
2021/07/22 03:06:25;;;;;;;10.05;7.05;;;;;;;;;;5063148;28;20029;-75
2021/07/22 03:08:51;;;;;;;11.82;7.85;;;;;;;;;;5073164;28;20033;-73
2021/07/22 03:11:17;;;;;;;10.95;7.55;;;;;;;;;;5057512;28;20025;-76
2021/07/22 03:13:43;;;;;;;8.90;7.43;;;;;;;;;;5078743;28;20029;-78
2021/07/22 03:16:09;;;;;;;9.48;7.18;;;;;;;;;;5072087;28;20119;-71
2021/07/22 03:18:35;;;;;;;9.90;7.00;;;;;;;;;;5061708;28;20056;-69
2021/07/22 03:21:02;;;;;;;9.90;7.60;;;;;;;;;;5066841;28;20021;-73
2021/07/22 03:23:28;;;;;;;9.77;6.80;;;;;;;;;;5069774;28;20025;-77
2021/07/22 03:25:54;;;;;;;12.57;7.45;;;;;;;;;;5060568;28;20033;-70
2021/07/22 03:28:20;;;;;;;9.57;7.55;;;;;;;;;;5050665;28;20182;-69
2021/07/22 03:30:46;;;;;;;10.57;7.35;;;;;;;;;;5058275;28;20033;-79
2021/07/22 03:33:13;;;;;;;14.63;7.30;;;;;;;;;;5060773;28;20040;-69
2021/07/22 03:35:41;;;;;;;11.13;6.75;;;;;;;;;;5064582;28;20032;-80
2021/07/22 03:38:07;;;;;;;10.68;7.13;;;;;;;;;;5059804;28;20022;-78
2021/07/22 03:40:41;;;;;;;10.35;7.07;;;;;;;;;;5046261;28;20474;-79
2021/07/22 03:43:07;;;;;;;12.60;7.22;;;;;;;;;;5074041;28;20481;-71
2021/07/22 03:45:33;;;;;;;10.65;7.05;;;;;;;;;;5062479;28;20048;-77
2021/07/22 03:48:00;;;;;;;9.00;7.00;;;;;;;;;;5058318;28;20021;-68
2021/07/22 03:50:26;;;;;;;11.10;6.88;;;;;;;;;;5052468;28;20051;-68
2021/07/22 03:52:56;;;;;;;11.68;6.82;;;;;;;;;;5060580;28;20107;-78
2021/07/22 03:55:23;;;;;;;10.25;6.70;;;;;;;;;;5067140;28;20650;-77
2021/07/22 03:57:49;;;;;;;10.00;6.60;;;;;;;;;;5056953;28;20060;-68
2021/07/22 04:00:15;;;;;;;11.73;7.10;;;;;;;;;;5050722;28;20033;-80
2021/07/22 04:02:41;;;;;;;10.98;7.00;;;;;;;;;;5043405;28;20033;-77
2021/07/22 04:05:08;;;;;;;10.65;6.82;;;;;;;;;;5049312;28;20044;-73
2021/07/22 04:07:34;;;;;;;12.88;7.25;;;;;;;;;;5051296;28;20217;-69
2021/07/22 04:10:00;;;;;;;13.70;7.40;;;;;;;;;;5061133;28;20104;-82
2021/07/22 04:12:26;;;;;;;9.82;6.97;;;;;;;;;;5053412;28;20029;-78
2021/07/22 04:14:52;;;;;;;10.88;7.07;;;;;;;;;;5061456;28;20029;-71
2021/07/22 04:17:18;;;;;;;15.40;7.95;;;;;;;;;;5060955;28;20044;-69
2021/07/22 04:19:44;;;;;;;20.35;8.48;;;;;;;;;;5053962;28;20033;-79
2021/07/22 04:22:11;;;;;;;12.15;7.88;;;;;;;;;;5043511;28;20487;-78
2021/07/22 04:24:38;;;;;;;12.23;7.95;;;;;;;;;;5045832;28;20037;-78
2021/07/22 04:27:06;;;;;;;15.48;8.23;;;;;;;;;;5044341;28;20028;-79
2021/07/22 04:29:34;;;;;;;14.82;8.18;;;;;;;;;;5040540;28;20049;-74
2021/07/22 04:32:13;;;;;;;14.50;7.97;;;;;;;;;;5041156;28;20033;-76
2021/07/22 04:34:56;;;;;;;14.00;7.90;;;;;;;;;;5050399;28;20025;-75
2021/07/22 04:37:23;;;;;;;12.45;7.38;;;;;;;;;;5040314;28;20033;-75
2021/07/22 04:42:53;;;;;;;13.30;7.30;;;;;;;;;;5053367;28;20048;-83
2021/07/22 04:45:21;;;;;;;16.85;7.72;;;;;;;;;;5044720;28;20104;-83
2021/07/22 04:47:47;;;;;;;16.52;7.75;;;;;;;;;;5031739;28;20127;-71
2021/07/22 04:50:13;;;;;;;17.15;8.05;;;;;;;;;;5042740;28;20033;-78
2021/07/22 04:52:39;;;;;;;14.05;7.60;;;;;;;;;;5065167;28;20493;-75
2021/07/22 04:55:39;;;;;;;12.98;7.65;;;;;;;;;;5057749;28;20037;-71
2021/07/22 04:58:05;;;;;;;12.75;7.90;;;;;;;;;;4921634;29;20075;-75
2021/07/22 05:00:59;;;;;;;17.67;7.95;;;;;;;;;;4931719;29;20100;-75
2021/07/22 05:04:07;;;;;;;16.52;9.35;;;;;;;;;;4931332;29;20044;-71
2021/07/22 05:06:30;;;;;;;16.95;10.75;;;;;;;;;;4929835;29;20127;-84
2021/07/22 05:08:56;;;;;;;14.00;9.90;;;;;;;;;;4932184;29;20046;-85
2021/07/22 05:11:22;;;;;;;13.77;9.05;;;;;;;;;;4930355;29;20506;-74
2021/07/22 05:13:52;;;;;;;15.90;9.07;;;;;;;;;;4924981;29;20814;-87
2021/07/22 05:16:20;;;;;;;12.13;8.48;;;;;;;;;;4913548;29;20086;-78
2021/07/22 05:18:46;;;;;;;14.05;7.65;;;;;;;;;;4936347;29;20046;-83
2021/07/22 05:21:12;;;;;;;11.63;7.75;;;;;;;;;;4936360;29;20510;-86
2021/07/22 05:23:41;;;;;;;14.65;7.95;;;;;;;;;;4963676;28;20039;-81
2021/07/22 05:26:10;;;;;;;16.25;8.68;;;;;;;;;;4980997;28;20491;-87
2021/07/22 05:28:36;;;;;;;17.08;8.18;;;;;;;;;;4979083;28;20465;-73
2021/07/22 05:34:13;;;;;;;15.60;8.20;;;;;;;;;;4925907;28;20114;-83
2021/07/22 05:36:40;;;;;;;11.00;8.15;;;;;;;;;;4964433;28;20198;-86
2021/07/22 05:39:06;;;;;;;10.85;7.82;;;;;;;;;;4969837;28;20062;-90
2021/07/22 05:41:32;;;;;;;13.10;8.05;;;;;;;;;;4962591;28;20030;-86
2021/07/22 05:43:58;;;;;;;18.25;8.80;;;;;;;;;;4986857;28;20094;-78
2021/07/22 05:46:25;;;;;;;18.20;7.75;;;;;;;;;;4981440;28;20038;-83
2021/07/22 05:48:51;;;;;;;12.77;8.20;;;;;;;;;;4966942;28;20034;-74
2021/07/22 05:51:17;;;;;;;15.00;9.25;;;;;;;;;;4975592;28;20038;-79
2021/07/22 05:53:43;;;;;;;11.50;8.25;;;;;;;;;;4973417;28;20030;-83
2021/07/22 05:56:16;;;;;;;15.27;8.05;;;;;;;;;;4968442;28;20086;-87
2021/07/22 05:58:42;;;;;;;13.50;6.97;;;;;;;;;;4962621;28;20038;-94
2021/07/22 06:01:08;;;;;;;16.77;9.32;;;;;;;;;;4963178;28;20035;-87
2021/07/22 06:03:34;;;;;;;14.75;8.93;;;;;;;;;;4981022;28;20493;-80
2021/07/22 06:06:00;;;;;;;15.57;8.18;;;;;;;;;;4971122;28;20046;-78
2021/07/22 06:08:26;;;;;;;11.13;8.63;;;;;;;;;;4970119;28;20050;-81
2021/07/22 06:10:55;;;;;;;15.23;7.22;;;;;;;;;;5016297;28;20509;-81
2021/07/22 06:13:30;;;;;;;9.65;6.68;;;;;;;;;;5045627;28;20017;-79
2021/07/22 06:15:57;;;;;;;14.65;7.55;;;;;;;;;;5029925;28;20028;-86
2021/07/22 06:18:25;;;;;;;13.02;6.22;;;;;;;;;;5047088;28;20028;-82
2021/07/22 06:20:51;;;;;;;10.65;6.68;;;;;;;;;;5031894;28;20510;-82
2021/07/22 06:23:17;;;;;;;13.93;7.30;;;;;;;;;;5038020;28;20033;-91
2021/07/22 06:25:43;;;;;;;12.77;6.90;;;;;;;;;;5033965;28;20108;-93
2021/07/22 06:28:09;;;;;;;12.50;7.38;;;;;;;;;;5044573;28;20535;-90
2021/07/22 06:30:36;;;;;;;18.92;7.78;;;;;;;;;;5031133;28;20029;-88
2021/07/22 06:33:02;;;;;;;11.75;7.63;;;;;;;;;;5033006;28;20029;-83
2021/07/22 06:35:28;;;;;;;12.80;8.07;;;;;;;;;;5028189;28;20035;-89
2021/07/22 06:37:54;;;;;;;12.65;7.53;;;;;;;;;;5026551;28;20099;-90
2021/07/22 06:40:20;;;;;;;12.00;7.05;;;;;;;;;;5041039;28;20063;-86
2021/07/22 06:42:46;;;;;;;10.07;6.93;;;;;;;;;;5052748;28;20458;-87
2021/07/22 06:45:12;;;;;;;15.65;6.90;;;;;;;;;;5033366;28;20433;-92
2021/07/22 06:47:39;;;;;;;14.70;7.18;;;;;;;;;;5044846;28;20142;-91
2021/07/22 06:50:07;;;;;;;17.58;7.63;;;;;;;;;;5050893;28;20074;-92
2021/07/22 06:52:34;;;;;;;12.55;7.95;;;;;;;;;;5033364;28;20387;-77
2021/07/22 06:55:00;;;;;;;16.45;7.30;;;;;;;;;;5046219;28;20056;-85
2021/07/22 06:57:26;;;;;;;13.25;7.70;;;;;;;;;;5046132;28;20044;-80
2021/07/22 06:59:52;;;;;;;13.65;7.22;;;;;;;;;;5040729;28;20498;-80
2021/07/22 07:02:18;;;;;;;17.17;7.43;;;;;;;;;;5039213;28;20498;-92
2021/07/22 07:04:44;;;;;;;11.05;6.85;;;;;;;;;;5034143;28;20025;-90
2021/07/22 07:07:10;;;;;;;13.77;6.35;;;;;;;;;;5045790;28;20486;-90
2021/07/22 07:09:36;;;;;;;11.38;6.63;;;;;;;;;;5027544;28;20037;-84
2021/07/22 07:12:03;;;;;;;16.58;7.22;;;;;;;;;;5050209;28;20671;-82
2021/07/22 07:14:29;;;;;;;11.98;6.75;;;;;;;;;;5049721;28;20075;-89
2021/07/22 07:16:55;;;;;;;13.32;7.03;;;;;;;;;;5048640;28;20033;-88
2021/07/22 07:19:21;;;;;;;11.23;6.05;;;;;;;;;;5048594;28;20497;-87
2021/07/22 07:21:47;;;;;;;10.48;6.07;;;;;;;;;;5047024;28;20654;-86
2021/07/22 07:24:13;;;;;;;10.73;6.00;;;;;;;;;;5042132;28;20471;-85
2021/07/22 07:26:39;;;;;;;8.35;5.70;;;;;;;;;;5045763;28;20029;-79
2021/07/22 07:29:05;;;;;;;11.60;6.20;;;;;;;;;;5051519;28;20048;-80
2021/07/22 07:31:31;;;;;;;9.90;5.90;;;;;;;;;;5049305;28;20036;-83
2021/07/22 07:33:57;;;;;;;11.75;6.80;;;;;;;;;;5033063;28;20565;-89
2021/07/22 07:36:23;;;;;;;11.75;6.85;;;;;;;;;;5029239;28;20494;-92
2021/07/22 07:38:49;;;;;;;14.80;7.07;;;;;;;;;;5030253;28;20433;-86
2021/07/22 07:41:15;;;;;;;14.52;6.97;;;;;;;;;;5040229;28;20124;-87
2021/07/22 07:43:41;;;;;;;13.30;6.63;;;;;;;;;;5044667;28;20024;-85
2021/07/22 07:46:07;;;;;;;10.88;6.50;;;;;;;;;;5028936;28;20060;-81
2021/07/22 07:48:33;;;;;;;10.27;5.97;;;;;;;;;;5046571;28;20035;-84
2021/07/22 07:51:01;;;;;;;9.70;6.07;;;;;;;;;;5032632;28;20446;-78
2021/07/22 07:53:28;;;;;;;12.05;6.00;;;;;;;;;;5034936;28;20393;-82
2021/07/22 07:55:54;;;;;;;12.18;6.75;;;;;;;;;;5026658;28;20081;-83
2021/07/22 07:58:20;;;;;;;12.23;6.07;;;;;;;;;;5058823;28;20063;-79
2021/07/22 08:00:47;;;;;;;10.98;6.53;;;;;;;;;;5047558;28;20043;-75
2021/07/22 08:15:15;;;;;;;9.38;5.82;;;;;;;;;;5077859;27;20511;-79
2021/07/22 08:17:41;;;;;;;10.35;5.82;;;;;;;;;;5088441;28;20055;-82
2021/07/22 08:20:09;;;;;;;8.30;5.40;;;;;;;;;;5089351;28;20436;-75
2021/07/22 08:22:35;;;;;;;8.65;5.63;;;;;;;;;;5078474;28;20556;-81
2021/07/22 08:25:01;;;;;;;9.18;5.50;;;;;;;;;;5089392;28;20028;-74
2021/07/22 08:27:28;;;;;;;8.00;5.18;;;;;;;;;;5091516;28;20025;-75
2021/07/22 08:29:54;;;;;;;9.23;4.93;;;;;;;;;;5089265;28;20028;-80
2021/07/22 08:32:21;;;;;;;10.50;5.00;;;;;;;;;;5078331;28;20556;-92
2021/07/22 08:34:47;;;;;;;9.32;4.82;;;;;;;;;;5082207;28;20090;-75
2021/07/22 08:37:13;;;;;;;9.10;4.40;;;;;;;;;;5079385;28;20477;-74
2021/07/22 08:39:40;;;;;;;7.35;4.47;;;;;;;;;;5081899;28;20024;-72
2021/07/22 08:42:07;;;;;;;9.35;4.78;;;;;;;;;;5088771;28;20148;-74
2021/07/22 08:44:35;;;;;;;7.80;4.60;;;;;;;;;;5085822;28;20410;-78
2021/07/22 08:47:01;;;;;;;11.32;4.65;;;;;;;;;;5080778;28;20514;-72
2021/07/22 08:49:27;;;;;;;13.63;5.00;;;;;;;;;;5084058;28;20024;-80
2021/07/22 08:51:55;;;;;;;6.28;4.15;;;;;;;;;;5083975;28;20050;-75
2021/07/22 08:54:30;;;;;;;8.27;4.18;;;;;;;;;;5094997;28;20045;-83
2021/07/22 08:56:56;;;;;;;7.85;4.03;;;;;;;;;;5087142;28;20150;-73
2021/07/22 08:59:26;;;;;;;6.22;4.03;;;;;;;;;;5083867;28;20078;-73
2021/07/22 09:01:52;;;;;;;5.78;3.70;;;;;;;;;;5084978;28;20024;-77
2021/07/22 09:04:19;;;;;;;6.30;3.80;;;;;;;;;;5086296;28;20119;-76
2021/07/22 09:06:45;;;;;;;7.75;4.07;;;;;;;;;;5075193;28;20033;-83
2021/07/22 09:09:15;;;;;;;8.25;4.13;;;;;;;;;;5078919;28;20044;-86
2021/07/22 09:12:02;;;;;;;8.18;3.60;;;;;;;;;;5076602;28;20048;-74
2021/07/22 09:14:29;;;;;;;10.80;4.13;;;;;;;;;;5068800;28;20060;-71
2021/07/22 09:17:00;;;;;;;7.20;3.92;;;;;;;;;;5064525;28;20115;-80
2021/07/22 09:19:39;;;;;;;7.22;3.80;;;;;;;;;;5057980;28;20126;-72
2021/07/22 09:22:06;;;;;;;6.93;3.60;;;;;;;;;;5062782;28;20041;-72
2021/07/22 09:24:49;;;;;;;5.38;3.58;;;;;;;;;;5056401;28;20112;-77
2021/07/22 09:27:35;;;;;;;7.30;3.90;;;;;;;;;;5067894;28;20501;-72
2021/07/22 09:30:02;;;;;;;9.60;3.60;;;;;;;;;;5071624;28;20410;-84
2021/07/22 09:44:27;;;;;;;5.22;3.40;;;;;;;;;;5086327;27;20390;-77
2021/07/22 09:46:54;;;;;;;5.32;3.90;;;;;;;;;;5065631;28;20025;-77
2021/07/22 09:49:20;;;;;;;6.65;3.78;;;;;;;;;;5062105;28;20032;-76
2021/07/22 09:51:46;;;;;;;6.00;3.70;;;;;;;;;;5064987;28;20124;-75
2021/07/22 09:54:13;;;;;;;7.43;4.18;;;;;;;;;;5058377;28;20052;-75
2021/07/22 09:56:39;;;;;;;8.48;3.90;;;;;;;;;;5063896;28;20036;-73
2021/07/22 09:59:06;;;;;;;4.45;3.60;;;;;;;;;;5067985;28;20031;-75
2021/07/22 10:01:34;;;;;;;6.07;3.80;;;;;;;;;;5060962;28;20028;-75
2021/07/22 10:04:02;;;;;;;6.55;3.50;;;;;;;;;;5065239;28;20502;-76
2021/07/22 10:06:28;;;;;;;6.43;4.05;;;;;;;;;;5064784;28;20032;-75
2021/07/22 10:08:55;;;;;;;7.70;3.75;;;;;;;;;;5066488;28;20108;-79
2021/07/22 10:11:21;;;;;;;6.38;4.13;;;;;;;;;;5064356;28;20029;-76
2021/07/22 10:13:48;;;;;;;5.85;3.60;;;;;;;;;;5064065;28;20073;-80
2021/07/22 10:16:18;;;;;;;6.05;4.07;;;;;;;;;;5057459;28;20028;-78
2021/07/22 10:18:46;;;;;;;7.00;3.72;;;;;;;;;;5080124;28;20079;-77
2021/07/22 10:21:12;;;;;;;6.90;3.80;;;;;;;;;;5058895;28;20028;-81
2021/07/22 10:23:42;;;;;;;5.10;3.55;;;;;;;;;;5060970;28;20028;-81
2021/07/22 10:26:09;;;;;;;7.40;4.18;;;;;;;;;;5057863;28;20035;-79
2021/07/22 10:28:35;;;;;;;6.20;3.75;;;;;;;;;;5053662;28;20018;-80
2021/07/22 10:31:07;;;;;;;9.32;4.13;;;;;;;;;;5077347;28;20071;-80
2021/07/22 10:33:34;;;;;;;6.85;3.75;;;;;;;;;;5057042;28;20064;-76
2021/07/22 10:36:03;;;;;;;8.77;4.03;;;;;;;;;;5060483;28;20032;-83
2021/07/22 10:38:48;;;;;;;6.18;4.10;;;;;;;;;;5062598;28;20024;-74
2021/07/22 10:41:35;;;;;;;6.32;3.92;;;;;;;;;;5054448;28;20052;-73
2021/07/22 10:44:01;;;;;;;5.63;3.90;;;;;;;;;;5065915;28;20048;-74
2021/07/22 10:46:47;;;;;;;6.15;4.05;;;;;;;;;;5072526;28;20024;-72
2021/07/22 10:49:16;;;;;;;7.75;3.72;;;;;;;;;;5073656;28;20044;-80
2021/07/22 10:51:42;;;;;;;5.32;3.83;;;;;;;;;;5071358;28;20036;-75
2021/07/22 10:54:08;;;;;;;8.80;4.22;;;;;;;;;;5065757;28;20149;-75
2021/07/22 10:56:43;;;;;;;6.28;4.10;;;;;;;;;;5072572;28;20028;-81
2021/07/22 10:59:09;;;;;;;6.68;4.10;;;;;;;;;;5069465;28;20029;-76
2021/07/22 11:01:44;;;;;;;6.80;3.78;;;;;;;;;;5067870;28;20032;-79
2021/07/22 11:04:17;;;;;;;23.63;4.53;;;;;;;;;;5065164;28;20151;-74
2021/07/22 11:07:12;;;;;;;10.07;4.75;;;;;;;;;;5068632;28;20486;-78
2021/07/22 11:09:49;;;;;;;7.32;4.10;;;;;;;;;;4974792;28;20184;-82
2021/07/22 11:12:34;;;;;;;9.02;4.22;;;;;;;;;;4984139;28;20549;-75
2021/07/22 11:15:02;;;;;;;9.77;4.40;;;;;;;;;;4991130;28;20498;-76
2021/07/22 11:17:31;;;;;;;6.25;4.40;;;;;;;;;;4990857;28;20034;-75
2021/07/22 11:20:15;;;;;;;6.32;4.40;;;;;;;;;;4991749;28;20088;-76
2021/07/22 11:22:41;;;;;;;6.57;3.63;;;;;;;;;;4991395;28;20030;-81
2021/07/22 11:25:09;;;;;;;5.07;3.88;;;;;;;;;;4991418;28;20069;-73
2021/07/22 11:27:43;;;;;;;7.35;4.47;;;;;;;;;;4991977;28;20042;-73
2021/07/22 11:30:08;;;;;;;;;;;;;;;;;;4992310;28;20030;-79
2021/07/22 11:32:35;;;;;;;8.35;4.70;;;;;;;;;;4991597;28;19924;-77
2021/07/22 11:35:04;;;;;;;7.05;4.60;;;;;;;;;;4985474;28;20030;-83
2021/07/22 11:37:30;;;;;;;7.47;5.05;;;;;;;;;;4991180;28;20034;-78
2021/07/22 11:39:56;;;;;;;7.63;5.03;;;;;;;;;;4990566;28;20038;-76
2021/07/22 11:42:23;;;;;;;7.30;4.70;;;;;;;;;;4990901;28;20077;-78
2021/07/22 11:45:02;;;;;;;8.73;4.75;;;;;;;;;;4991595;28;20040;-74
2021/07/22 11:47:33;;;;;;;5.70;4.55;;;;;;;;;;5066366;28;20184;-84
2021/07/22 11:50:03;;;;;;;8.05;4.75;;;;;;;;;;5071307;28;20013;-82
2021/07/22 11:52:32;;;;;;;8.63;5.18;;;;;;;;;;5069366;28;20085;-76
2021/07/22 11:55:04;;;;;;;7.75;5.03;;;;;;;;;;5070445;28;20021;-74
2021/07/22 11:57:37;;;;;;;10.88;4.90;;;;;;;;;;5068186;28;20067;-74
2021/07/22 12:00:22;;;;;;;8.38;5.03;;;;;;;;;;5071325;28;20013;-77
2021/07/22 12:02:55;;;;;;;8.07;5.07;;;;;;;;;;5081514;28;20094;-78
2021/07/22 12:05:25;;;;;;;9.18;5.00;;;;;;;;;;5080651;28;20027;-77
2021/07/22 12:07:57;;;;;;;9.25;5.22;;;;;;;;;;5064873;28;20501;-74
2021/07/22 12:10:27;;;;;;;11.55;5.43;;;;;;;;;;5071502;28;20082;-77
2021/07/22 12:12:57;;;;;;;9.48;5.05;;;;;;;;;;5074423;28;20439;-70
2021/07/22 12:15:23;;;;;;;11.57;5.32;;;;;;;;;;5070216;28;20546;-80
2021/07/22 12:17:49;;;;;;;9.95;4.95;;;;;;;;;;5069013;28;20104;-80
2021/07/22 12:20:15;;;;;;;9.98;5.35;;;;;;;;;;5070351;28;20055;-78
2021/07/22 12:22:42;;;;;;;11.85;5.35;;;;;;;;;;5062528;28;20035;-76
2021/07/22 12:25:08;;;;;;;6.63;4.93;;;;;;;;;;5070785;28;20055;-78
2021/07/22 12:27:34;;;;;;;7.18;4.68;;;;;;;;;;5070937;28;20471;-80
2021/07/22 12:30:03;;;;;;;8.20;5.03;;;;;;;;;;5071738;28;20052;-82
2021/07/22 12:32:30;;;;;;;7.32;5.20;;;;;;;;;;5074562;28;20036;-72
2021/07/22 12:34:57;;;;;;;7.28;4.95;;;;;;;;;;5072751;28;20417;-81
2021/07/22 12:37:41;;;;;;;8.25;4.90;;;;;;;;;;5070487;28;20111;-82
2021/07/22 12:40:08;;;;;;;10.82;4.72;;;;;;;;;;5064477;28;20034;-80
2021/07/22 12:42:34;;;;;;;17.65;5.63;;;;;;;;;;5059293;28;20037;-81
2021/07/22 12:45:13;;;;;;;8.07;5.15;;;;;;;;;;5068278;28;20028;-81
2021/07/22 12:47:46;;;;;;;10.27;4.97;;;;;;;;;;5062108;28;20021;-81
2021/07/22 12:50:28;;;;;;;6.82;4.85;;;;;;;;;;5068509;28;20023;-76
2021/07/22 12:52:54;;;;;;;6.82;4.97;;;;;;;;;;5065568;28;20124;-77
2021/07/22 12:55:31;;;;;;;7.88;4.63;;;;;;;;;;5066748;28;20048;-72
2021/07/22 12:57:57;;;;;;;7.22;4.90;;;;;;;;;;5069249;28;20034;-81
2021/07/22 13:00:23;;;;;;;6.13;4.72;;;;;;;;;;5062419;28;20020;-72
2021/07/22 13:02:56;;;;;;;7.25;4.70;;;;;;;;;;5070343;28;20024;-80
2021/07/22 13:05:23;;;;;;;8.48;4.80;;;;;;;;;;5059987;28;20040;-70
2021/07/22 13:07:49;;;;;;;7.95;5.32;;;;;;;;;;5068814;28;20040;-82
2021/07/22 13:10:16;;;;;;;8.23;4.80;;;;;;;;;;5069678;28;20381;-81
2021/07/22 13:12:42;;;;;;;10.82;5.20;;;;;;;;;;5062565;28;20078;-80
2021/07/22 13:15:08;;;;;;;8.05;5.40;;;;;;;;;;5066073;28;20043;-77
2021/07/22 13:17:39;;;;;;;6.65;4.88;;;;;;;;;;5064464;28;20028;-70
2021/07/22 13:20:18;;;;;;;9.63;5.30;;;;;;;;;;5065653;28;20359;-81
2021/07/22 13:22:44;;;;;;;10.60;4.80;;;;;;;;;;5067574;28;20036;-75
2021/07/22 13:25:10;;;;;;;8.70;4.97;;;;;;;;;;5067040;28;20079;-80
2021/07/22 13:27:37;;;;;;;6.03;4.85;;;;;;;;;;5070626;28;20049;-81
2021/07/22 13:30:05;;;;;;;9.48;5.32;;;;;;;;;;5068111;28;20443;-80
2021/07/22 13:32:31;;;;;;;6.38;4.78;;;;;;;;;;5064938;28;20029;-76
2021/07/22 13:34:59;;;;;;;9.18;4.97;;;;;;;;;;5065100;28;20027;-79
2021/07/22 13:37:25;;;;;;;11.13;4.82;;;;;;;;;;5064437;28;20029;-71
2021/07/22 13:39:51;;;;;;;11.55;5.57;;;;;;;;;;5066551;28;20020;-82
2021/07/22 13:42:17;;;;;;;11.50;4.55;;;;;;;;;;5062650;28;20047;-73
2021/07/22 13:44:43;;;;;;;8.02;5.20;;;;;;;;;;5070896;28;20689;-77
2021/07/22 13:47:09;;;;;;;9.68;4.90;;;;;;;;;;5062688;28;20025;-78
2021/07/22 13:49:35;;;;;;;14.52;5.25;;;;;;;;;;5063714;28;20028;-78
2021/07/22 13:52:01;;;;;;;7.38;5.45;;;;;;;;;;5060959;28;20035;-77
2021/07/22 13:54:27;;;;;;;7.90;5.07;;;;;;;;;;5066914;28;20033;-79
2021/07/22 13:56:53;;;;;;;8.02;4.75;;;;;;;;;;5065423;28;20031;-79
2021/07/22 13:59:22;;;;;;;7.35;4.93;;;;;;;;;;5070249;28;20025;-74
2021/07/22 14:01:48;;;;;;;6.97;4.85;;;;;;;;;;5060266;28;20070;-77
2021/07/22 14:04:14;;;;;;;10.23;4.93;;;;;;;;;;5061833;28;20082;-77
2021/07/22 14:06:40;;;;;;;8.15;4.93;;;;;;;;;;5067600;28;20056;-76
2021/07/22 14:09:06;;;;;;;8.73;5.03;;;;;;;;;;5066536;28;20033;-76
2021/07/22 14:11:33;;;;;;;8.90;5.30;;;;;;;;;;5059231;28;20021;-78
2021/07/22 14:13:59;;;;;;;7.32;4.90;;;;;;;;;;5063394;28;20032;-76
2021/07/22 14:16:26;;;;;;;7.50;4.90;;;;;;;;;;5069863;28;20104;-78
2021/07/22 14:18:52;;;;;;;9.70;5.05;;;;;;;;;;5070494;28;20028;-76
2021/07/22 14:21:18;;;;;;;11.15;5.15;;;;;;;;;;5072422;28;20029;-75
2021/07/22 14:23:47;;;;;;;12.48;4.80;;;;;;;;;;5068675;28;20382;-78
2021/07/22 14:26:13;;;;;;;8.43;4.90;;;;;;;;;;5064889;28;20027;-84
2021/07/22 14:28:40;;;;;;;9.10;5.20;;;;;;;;;;5072083;28;20021;-81
2021/07/22 14:31:06;;;;;;;6.97;4.88;;;;;;;;;;5074824;28;20424;-79
2021/07/22 14:33:33;;;;;;;9.70;4.68;;;;;;;;;;5065527;28;20055;-73
2021/07/22 14:36:00;;;;;;;7.53;4.97;;;;;;;;;;5070198;28;20032;-76
2021/07/22 14:38:27;;;;;;;8.75;5.10;;;;;;;;;;5072140;28;20090;-75
2021/07/22 14:40:54;;;;;;;8.57;5.28;;;;;;;;;;5064646;28;20439;-71
2021/07/22 14:43:20;;;;;;;10.85;5.18;;;;;;;;;;5071139;28;20043;-82
2021/07/22 14:45:46;;;;;;;6.80;4.70;;;;;;;;;;5072643;28;20032;-88
2021/07/22 14:48:12;;;;;;;6.82;4.68;;;;;;;;;;5072754;28;20017;-80
2021/07/22 14:50:38;;;;;;;6.72;4.53;;;;;;;;;;5067242;28;20028;-78
2021/07/22 14:53:04;;;;;;;8.07;4.70;;;;;;;;;;5069862;28;20119;-72
2021/07/22 14:55:30;;;;;;;8.57;4.70;;;;;;;;;;5070071;28;20021;-75
2021/07/22 14:57:57;;;;;;;7.20;4.80;;;;;;;;;;5067087;28;20025;-75
2021/07/22 15:00:23;;;;;;;9.90;5.18;;;;;;;;;;5070472;28;20017;-72
2021/07/22 15:02:49;;;;;;;6.85;5.07;;;;;;;;;;5064952;28;20044;-73
2021/07/22 15:05:15;;;;;;;7.25;4.47;;;;;;;;;;5069794;28;20017;-73
2021/07/22 15:07:41;;;;;;;9.65;5.10;;;;;;;;;;5072328;28;20020;-86
2021/07/22 15:10:07;;;;;;;9.30;4.68;;;;;;;;;;5069819;28;20482;-79